sensor_id;sensor_type;location;lat;lon;timestamp;pressure;altitude;pressure_sealevel;temperature;humidity
42633;BME280;28261;53.304;-6.284;2022-10-16T00:01:30;99398.72;;;7.86;88.33
42633;BME280;28261;53.304;-6.284;2022-10-16T00:03:34;99398.03;;;7.84;88.13
42633;BME280;28261;53.304;-6.284;2022-10-16T00:05:40;99398.03;;;7.84;88.17
42633;BME280;28261;53.304;-6.284;2022-10-16T00:07:46;99406.06;;;7.82;88.53
42633;BME280;28261;53.304;-6.284;2022-10-16T00:09:49;99411.34;;;7.82;88.91
42633;BME280;28261;53.304;-6.284;2022-10-16T00:11:53;99413.25;;;7.80;89.41
42633;BME280;28261;53.304;-6.284;2022-10-16T00:14:03;99419.47;;;7.79;89.00
42633;BME280;28261;53.304;-6.284;2022-10-16T00:16:08;99414.31;;;7.77;89.45
42633;BME280;28261;53.304;-6.284;2022-10-16T00:18:12;99419.59;;;7.77;89.66
42633;BME280;28261;53.304;-6.284;2022-10-16T00:20:16;99424.03;;;7.77;90.52
42633;BME280;28261;53.304;-6.284;2022-10-16T00:22:19;99424.16;;;7.75;90.01
42633;BME280;28261;53.304;-6.284;2022-10-16T00:24:24;99429.56;;;7.74;90.47
42633;BME280;28261;53.304;-6.284;2022-10-16T00:26:28;99440.22;;;7.72;90.76
42633;BME280;28261;53.304;-6.284;2022-10-16T00:28:33;99439.38;;;7.72;90.56
42633;BME280;28261;53.304;-6.284;2022-10-16T00:30:37;99447.41;;;7.70;90.89
42633;BME280;28261;53.304;-6.284;2022-10-16T00:32:41;99455.31;;;7.70;90.79
42633;BME280;28261;53.304;-6.284;2022-10-16T00:34:44;99453.63;;;7.69;90.86
42633;BME280;28261;53.304;-6.284;2022-10-16T00:36:48;99452.81;;;7.69;90.97
42633;BME280;28261;53.304;-6.284;2022-10-16T00:38:51;99459.03;;;7.68;90.31
42633;BME280;28261;53.304;-6.284;2022-10-16T00:40:58;99444.25;;;7.65;90.36
42633;BME280;28261;53.304;-6.284;2022-10-16T00:43:04;99457.69;;;7.62;90.71
42633;BME280;28261;53.304;-6.284;2022-10-16T00:45:12;99450.72;;;7.61;91.26
42633;BME280;28261;53.304;-6.284;2022-10-16T00:47:19;99462.97;;;7.62;90.92
42633;BME280;28261;53.304;-6.284;2022-10-16T00:49:23;99459.63;;;7.60;90.83
42633;BME280;28261;53.304;-6.284;2022-10-16T00:51:31;99457.94;;;7.59;90.59
42633;BME280;28261;53.304;-6.284;2022-10-16T00:53:36;99467.63;;;7.58;90.86
42633;BME280;28261;53.304;-6.284;2022-10-16T00:55:40;99470.38;;;7.57;90.81
42633;BME280;28261;53.304;-6.284;2022-10-16T00:57:45;99470.50;;;7.55;90.67
42633;BME280;28261;53.304;-6.284;2022-10-16T00:59:48;99474.81;;;7.56;90.57
42633;BME280;28261;53.304;-6.284;2022-10-16T01:01:52;99472.31;;;7.55;90.28
42633;BME280;28261;53.304;-6.284;2022-10-16T01:03:55;99476.59;;;7.56;89.91
42633;BME280;28261;53.304;-6.284;2022-10-16T01:06:16;99481.88;;;7.56;89.79
42633;BME280;28261;53.304;-6.284;2022-10-16T01:08:27;99475.78;;;7.55;89.89
42633;BME280;28261;53.304;-6.284;2022-10-16T01:10:39;99474.06;;;7.54;89.81
42633;BME280;28261;53.304;-6.284;2022-10-16T01:12:50;99468.91;;;7.53;90.06
42633;BME280;28261;53.304;-6.284;2022-10-16T01:14:57;99479.47;;;7.53;89.35
42633;BME280;28261;53.304;-6.284;2022-10-16T01:17:04;99474.31;;;7.51;89.30
42633;BME280;28261;53.304;-6.284;2022-10-16T01:19:12;99480.53;;;7.50;89.03
42633;BME280;28261;53.304;-6.284;2022-10-16T01:21:22;99471.78;;;7.50;88.67
42633;BME280;28261;53.304;-6.284;2022-10-16T01:23:36;99480.66;;;7.49;89.29
42633;BME280;28261;53.304;-6.284;2022-10-16T01:25:57;99484.97;;;7.50;88.95
42633;BME280;28261;53.304;-6.284;2022-10-16T01:28:06;99479.72;;;7.50;88.27
42633;BME280;28261;53.304;-6.284;2022-10-16T01:30:15;99486.66;;;7.51;88.13
42633;BME280;28261;53.304;-6.284;2022-10-16T01:32:26;99493.84;;;7.49;87.60
42633;BME280;28261;53.304;-6.284;2022-10-16T01:34:33;99497.34;;;7.49;87.61
42633;BME280;28261;53.304;-6.284;2022-10-16T01:36:41;99490.25;;;7.50;87.60
42633;BME280;28261;53.304;-6.284;2022-10-16T01:38:48;99499.84;;;7.51;86.62
42633;BME280;28261;53.304;-6.284;2022-10-16T01:40:56;99507.66;;;7.52;86.66
42633;BME280;28261;53.304;-6.284;2022-10-16T01:43:06;99514.69;;;7.52;86.24
42633;BME280;28261;53.304;-6.284;2022-10-16T01:45:13;99515.56;;;7.52;85.96
42633;BME280;28261;53.304;-6.284;2022-10-16T01:47:22;99519.97;;;7.52;86.05
42633;BME280;28261;53.304;-6.284;2022-10-16T01:49:32;99534.13;;;7.51;86.00
42633;BME280;28261;53.304;-6.284;2022-10-16T01:51:37;99535.09;;;7.50;85.94
42633;BME280;28261;53.304;-6.284;2022-10-16T01:53:42;99543.13;;;7.48;85.70
42633;BME280;28261;53.304;-6.284;2022-10-16T01:55:47;99544.88;;;7.48;85.82
42633;BME280;28261;53.304;-6.284;2022-10-16T01:57:53;99548.50;;;7.47;85.83
42633;BME280;28261;53.304;-6.284;2022-10-16T02:00:05;99542.59;;;7.43;85.92
42633;BME280;28261;53.304;-6.284;2022-10-16T02:02:15;99551.47;;;7.42;86.20
42633;BME280;28261;53.304;-6.284;2022-10-16T02:04:23;99555.16;;;7.39;85.91
42633;BME280;28261;53.304;-6.284;2022-10-16T02:06:27;99548.34;;;7.37;86.49
42633;BME280;28261;53.304;-6.284;2022-10-16T02:08:31;99559.94;;;7.34;86.70
42633;BME280;28261;53.304;-6.284;2022-10-16T02:10:35;99563.53;;;7.33;86.63
42633;BME280;28261;53.304;-6.284;2022-10-16T02:12:42;99568.78;;;7.33;87.20
42633;BME280;28261;53.304;-6.284;2022-10-16T02:14:47;99574.06;;;7.33;86.88
42633;BME280;28261;53.304;-6.284;2022-10-16T02:16:52;99574.78;;;7.35;87.42
42633;BME280;28261;53.304;-6.284;2022-10-16T02:18:55;99571.31;;;7.35;87.05
42633;BME280;28261;53.304;-6.284;2022-10-16T02:21:00;99579.34;;;7.33;87.71
42633;BME280;28261;53.304;-6.284;2022-10-16T02:23:08;99583.88;;;7.31;87.69
42633;BME280;28261;53.304;-6.284;2022-10-16T02:25:19;99594.41;;;7.31;88.11
42633;BME280;28261;53.304;-6.284;2022-10-16T02:27:28;99602.31;;;7.31;87.99
42633;BME280;28261;53.304;-6.284;2022-10-16T02:29:38;99593.59;;;7.31;88.33
42633;BME280;28261;53.304;-6.284;2022-10-16T02:31:50;99605.94;;;7.30;88.06
42633;BME280;28261;53.304;-6.284;2022-10-16T02:33:58;99604.25;;;7.29;87.76
42633;BME280;28261;53.304;-6.284;2022-10-16T02:36:02;99613.94;;;7.28;87.49
42633;BME280;28261;53.304;-6.284;2022-10-16T02:38:06;99619.22;;;7.28;87.77
42633;BME280;28261;53.304;-6.284;2022-10-16T02:40:12;99620.88;;;7.29;87.19
42633;BME280;28261;53.304;-6.284;2022-10-16T02:42:17;99624.38;;;7.30;86.69
42633;BME280;28261;53.304;-6.284;2022-10-16T02:44:21;99628.91;;;7.28;87.20
42633;BME280;28261;53.304;-6.284;2022-10-16T02:46:24;99631.53;;;7.28;86.98
42633;BME280;28261;53.304;-6.284;2022-10-16T02:48:28;99629.97;;;7.25;86.98
42633;BME280;28261;53.304;-6.284;2022-10-16T02:50:33;99640.63;;;7.24;86.76
42633;BME280;28261;53.304;-6.284;2022-10-16T02:52:36;99646.84;;;7.23;86.95
42633;BME280;28261;53.304;-6.284;2022-10-16T02:54:39;99647.81;;;7.22;86.88
42633;BME280;28261;53.304;-6.284;2022-10-16T02:56:42;99647.06;;;7.20;87.01
42633;BME280;28261;53.304;-6.284;2022-10-16T02:58:46;99648.00;;;7.19;86.33
42633;BME280;28261;53.304;-6.284;2022-10-16T03:00:49;99649.91;;;7.17;86.19
42633;BME280;28261;53.304;-6.284;2022-10-16T03:02:52;99656.97;;;7.16;85.57
42633;BME280;28261;53.304;-6.284;2022-10-16T03:04:56;99660.47;;;7.17;85.81
42633;BME280;28261;53.304;-6.284;2022-10-16T03:07:00;99666.69;;;7.16;85.33
42633;BME280;28261;53.304;-6.284;2022-10-16T03:09:04;99671.94;;;7.16;84.62
42633;BME280;28261;53.304;-6.284;2022-10-16T03:11:07;99666.69;;;7.16;83.86
42633;BME280;28261;53.304;-6.284;2022-10-16T03:13:10;99680.69;;;7.16;83.56
42633;BME280;28261;53.304;-6.284;2022-10-16T03:15:15;99693.03;;;7.16;83.51
42633;BME280;28261;53.304;-6.284;2022-10-16T03:17:18;99693.25;;;7.13;83.22
42633;BME280;28261;53.304;-6.284;2022-10-16T03:19:21;99687.22;;;7.10;83.52
42633;BME280;28261;53.304;-6.284;2022-10-16T03:21:25;99691.66;;;7.10;83.25
42633;BME280;28261;53.304;-6.284;2022-10-16T03:23:29;99698.81;;;7.08;83.25
42633;BME280;28261;53.304;-6.284;2022-10-16T03:25:32;99696.28;;;7.06;83.10
42633;BME280;28261;53.304;-6.284;2022-10-16T03:27:36;99706.00;;;7.06;83.01
42633;BME280;28261;53.304;-6.284;2022-10-16T03:29:39;99703.38;;;7.06;83.11
42633;BME280;28261;53.304;-6.284;2022-10-16T03:31:42;99695.56;;;7.04;82.64
42633;BME280;28261;53.304;-6.284;2022-10-16T03:33:46;99711.38;;;7.04;82.18
42633;BME280;28261;53.304;-6.284;2022-10-16T03:35:53;99714.13;;;7.03;82.52
42633;BME280;28261;53.304;-6.284;2022-10-16T03:37:56;99720.25;;;7.03;82.09
42633;BME280;28261;53.304;-6.284;2022-10-16T03:40:01;99719.50;;;7.01;82.02
42633;BME280;28261;53.304;-6.284;2022-10-16T03:42:05;99722.16;;;7.01;82.29
42633;BME280;28261;53.304;-6.284;2022-10-16T03:44:08;99722.16;;;7.01;81.89
42633;BME280;28261;53.304;-6.284;2022-10-16T03:46:12;99731.00;;;7.00;81.96
42633;BME280;28261;53.304;-6.284;2022-10-16T03:48:15;99742.38;;;7.01;81.96
42633;BME280;28261;53.304;-6.284;2022-10-16T03:50:19;99737.97;;;7.01;81.94
42633;BME280;28261;53.304;-6.284;2022-10-16T03:52:22;99744.16;;;7.00;82.08
42633;BME280;28261;53.304;-6.284;2022-10-16T03:54:25;99741.63;;;6.99;81.86
42633;BME280;28261;53.304;-6.284;2022-10-16T03:56:30;99743.41;;;6.98;82.25
42633;BME280;28261;53.304;-6.284;2022-10-16T03:58:33;99744.28;;;6.99;81.76
42633;BME280;28261;53.304;-6.284;2022-10-16T04:00:40;99761.75;;;7.00;82.08
42633;BME280;28261;53.304;-6.284;2022-10-16T04:02:43;99763.56;;;6.99;82.22
42633;BME280;28261;53.304;-6.284;2022-10-16T04:04:52;99774.31;;;6.96;82.08
42633;BME280;28261;53.304;-6.284;2022-10-16T04:06:55;99774.41;;;6.94;82.19
42633;BME280;28261;53.304;-6.284;2022-10-16T04:08:58;99775.25;;;6.95;81.85
42633;BME280;28261;53.304;-6.284;2022-10-16T04:11:02;99798.84;;;6.97;82.12
42633;BME280;28261;53.304;-6.284;2022-10-16T04:13:08;99794.53;;;6.95;82.05
42633;BME280;28261;53.304;-6.284;2022-10-16T04:15:11;99800.75;;;6.94;81.81
42633;BME280;28261;53.304;-6.284;2022-10-16T04:17:14;99792.00;;;6.94;82.05
42633;BME280;28261;53.304;-6.284;2022-10-16T04:19:17;99799.91;;;6.94;81.97
42633;BME280;28261;53.304;-6.284;2022-10-16T04:21:21;99810.44;;;6.94;82.00
42633;BME280;28261;53.304;-6.284;2022-10-16T04:23:24;99817.41;;;6.95;82.02
42633;BME280;28261;53.304;-6.284;2022-10-16T04:25:27;99825.31;;;6.95;82.21
42633;BME280;28261;53.304;-6.284;2022-10-16T04:27:31;99829.63;;;6.96;81.82
42633;BME280;28261;53.304;-6.284;2022-10-16T04:29:36;99830.69;;;6.93;81.58
42633;BME280;28261;53.304;-6.284;2022-10-16T04:31:39;99842.06;;;6.94;81.68
42633;BME280;28261;53.304;-6.284;2022-10-16T04:33:43;99848.31;;;6.93;81.95
42633;BME280;28261;53.304;-6.284;2022-10-16T04:35:46;99845.66;;;6.93;81.94
42633;BME280;28261;53.304;-6.284;2022-10-16T04:37:49;99846.59;;;6.92;81.77
42633;BME280;28261;53.304;-6.284;2022-10-16T04:39:53;99854.50;;;6.92;81.71
42633;BME280;28261;53.304;-6.284;2022-10-16T04:41:57;99855.34;;;6.92;81.70
42633;BME280;28261;53.304;-6.284;2022-10-16T04:44:00;99870.31;;;6.92;81.84
42633;BME280;28261;53.304;-6.284;2022-10-16T04:46:05;99870.31;;;6.92;81.83
42633;BME280;28261;53.304;-6.284;2022-10-16T04:48:08;99882.56;;;6.93;81.78
42633;BME280;28261;53.304;-6.284;2022-10-16T04:50:11;99885.19;;;6.93;81.67
42633;BME280;28261;53.304;-6.284;2022-10-16T04:52:17;99887.91;;;6.91;81.67
42633;BME280;28261;53.304;-6.284;2022-10-16T04:54:21;99898.44;;;6.91;81.60
42633;BME280;28261;53.304;-6.284;2022-10-16T04:56:24;99888.88;;;6.90;81.80
42633;BME280;28261;53.304;-6.284;2022-10-16T04:58:27;99898.53;;;6.90;81.96
42633;BME280;28261;53.304;-6.284;2022-10-16T05:00:31;99900.22;;;6.91;81.68
42633;BME280;28261;53.304;-6.284;2022-10-16T05:02:36;99900.22;;;6.91;81.80
42633;BME280;28261;53.304;-6.284;2022-10-16T05:04:39;99900.22;;;6.91;81.64
42633;BME280;28261;53.304;-6.284;2022-10-16T05:06:42;99907.19;;;6.92;81.51
42633;BME280;28261;53.304;-6.284;2022-10-16T05:08:45;99905.50;;;6.91;81.43
42633;BME280;28261;53.304;-6.284;2022-10-16T05:10:49;99901.16;;;6.90;81.66
42633;BME280;28261;53.304;-6.284;2022-10-16T05:12:52;99895.81;;;6.91;81.53
42633;BME280;28261;53.304;-6.284;2022-10-16T05:14:55;99887.06;;;6.91;81.42
42633;BME280;28261;53.304;-6.284;2022-10-16T05:17:00;99891.56;;;6.89;81.40
42633;BME280;28261;53.304;-6.284;2022-10-16T05:19:05;99891.56;;;6.89;81.28
42633;BME280;28261;53.304;-6.284;2022-10-16T05:21:28;99889.81;;;6.89;81.59
42633;BME280;28261;53.304;-6.284;2022-10-16T05:23:32;99893.38;;;6.88;81.57
42633;BME280;28261;53.304;-6.284;2022-10-16T05:25:35;99898.53;;;6.90;81.15
42633;BME280;28261;53.304;-6.284;2022-10-16T05:27:39;99903.81;;;6.90;81.61
42633;BME280;28261;53.304;-6.284;2022-10-16T05:29:42;99896.00;;;6.88;81.43
42633;BME280;28261;53.304;-6.284;2022-10-16T05:31:45;99904.84;;;6.87;81.66
42633;BME280;28261;53.304;-6.284;2022-10-16T05:33:49;99912.84;;;6.86;81.56
42633;BME280;28261;53.304;-6.284;2022-10-16T05:35:53;99914.75;;;6.84;81.91
42633;BME280;28261;53.304;-6.284;2022-10-16T05:37:57;99909.66;;;6.81;81.81
42633;BME280;28261;53.304;-6.284;2022-10-16T05:40:00;99915.91;;;6.80;82.16
42633;BME280;28261;53.304;-6.284;2022-10-16T05:42:06;99910.81;;;6.76;81.88
42633;BME280;28261;53.304;-6.284;2022-10-16T05:44:10;99917.03;;;6.75;82.22
42633;BME280;28261;53.304;-6.284;2022-10-16T05:46:13;99919.69;;;6.75;82.12
42633;BME280;28261;53.304;-6.284;2022-10-16T05:48:17;99924.19;;;6.73;82.17
42633;BME280;28261;53.304;-6.284;2022-10-16T05:50:21;99931.97;;;6.75;82.31
42633;BME280;28261;53.304;-6.284;2022-10-16T05:52:27;99935.59;;;6.74;82.08
42633;BME280;28261;53.304;-6.284;2022-10-16T05:54:30;99944.41;;;6.73;82.49
42633;BME280;28261;53.304;-6.284;2022-10-16T05:56:34;99934.00;;;6.71;82.36
42633;BME280;28261;53.304;-6.284;2022-10-16T05:58:38;99946.28;;;6.71;82.63
42633;BME280;28261;53.304;-6.284;2022-10-16T06:00:43;99945.56;;;6.69;82.57
42633;BME280;28261;53.304;-6.284;2022-10-16T06:02:47;99947.31;;;6.68;82.66
42633;BME280;28261;53.304;-6.284;2022-10-16T06:04:51;99959.56;;;6.69;82.79
42633;BME280;28261;53.304;-6.284;2022-10-16T06:06:58;99958.72;;;6.69;82.88
42633;BME280;28261;53.304;-6.284;2022-10-16T06:09:05;99965.69;;;6.70;82.80
42633;BME280;28261;53.304;-6.284;2022-10-16T06:11:10;99969.25;;;6.69;82.75
42633;BME280;28261;53.304;-6.284;2022-10-16T06:13:14;99969.38;;;6.67;82.94
42633;BME280;28261;53.304;-6.284;2022-10-16T06:15:18;99965.75;;;6.68;82.88
42633;BME280;28261;53.304;-6.284;2022-10-16T06:17:22;99974.72;;;6.66;82.95
42633;BME280;28261;53.304;-6.284;2022-10-16T06:19:26;99976.50;;;6.65;82.91
42633;BME280;28261;53.304;-6.284;2022-10-16T06:21:30;99977.44;;;6.64;83.22
42633;BME280;28261;53.304;-6.284;2022-10-16T06:23:34;99981.03;;;6.63;83.10
42633;BME280;28261;53.304;-6.284;2022-10-16T06:25:39;99982.81;;;6.63;83.23
42633;BME280;28261;53.304;-6.284;2022-10-16T06:27:43;99991.72;;;6.60;83.31
42633;BME280;28261;53.304;-6.284;2022-10-16T06:29:46;99986.56;;;6.58;83.43
42633;BME280;28261;53.304;-6.284;2022-10-16T06:31:50;99998.03;;;6.57;83.43
42633;BME280;28261;53.304;-6.284;2022-10-16T06:33:55;99995.50;;;6.56;83.74
42633;BME280;28261;53.304;-6.284;2022-10-16T06:36:02;99995.50;;;6.56;83.63
42633;BME280;28261;53.304;-6.284;2022-10-16T06:38:06;100005.19;;;6.55;83.80
42633;BME280;28261;53.304;-6.284;2022-10-16T06:40:10;100005.19;;;6.55;83.96
42633;BME280;28261;53.304;-6.284;2022-10-16T06:42:17;100016.56;;;6.56;84.01
42633;BME280;28261;53.304;-6.284;2022-10-16T06:44:21;100022.81;;;6.55;83.86
42633;BME280;28261;53.304;-6.284;2022-10-16T06:46:26;100026.28;;;6.55;83.95
42633;BME280;28261;53.304;-6.284;2022-10-16T06:48:30;100030.69;;;6.55;84.11
42633;BME280;28261;53.304;-6.284;2022-10-16T06:50:35;100042.16;;;6.54;84.00
42633;BME280;28261;53.304;-6.284;2022-10-16T06:52:39;100047.53;;;6.52;83.98
42633;BME280;28261;53.304;-6.284;2022-10-16T06:54:43;100058.91;;;6.53;84.28
42633;BME280;28261;53.304;-6.284;2022-10-16T06:56:47;100066.69;;;6.54;84.50
42633;BME280;28261;53.304;-6.284;2022-10-16T06:58:53;100071.88;;;6.56;84.09
42633;BME280;28261;53.304;-6.284;2022-10-16T07:00:58;100070.19;;;6.55;84.03
42633;BME280;28261;53.304;-6.284;2022-10-16T07:03:02;100069.34;;;6.54;84.21
42633;BME280;28261;53.304;-6.284;2022-10-16T07:05:06;100081.84;;;6.51;84.58
42633;BME280;28261;53.304;-6.284;2022-10-16T07:07:11;100089.00;;;6.49;84.55
42633;BME280;28261;53.304;-6.284;2022-10-16T07:09:15;100090.69;;;6.50;85.46
42633;BME280;28261;53.304;-6.284;2022-10-16T07:11:22;100092.19;;;6.54;85.16
42633;BME280;28261;53.304;-6.284;2022-10-16T07:13:27;100096.44;;;6.56;85.19
42633;BME280;28261;53.304;-6.284;2022-10-16T07:15:32;100105.06;;;6.58;85.49
42633;BME280;28261;53.304;-6.284;2022-10-16T07:17:36;100112.72;;;6.63;85.28
42633;BME280;28261;53.304;-6.284;2022-10-16T07:19:41;100117.78;;;6.66;85.14
42633;BME280;28261;53.304;-6.284;2022-10-16T07:21:45;100113.09;;;6.71;85.12
42633;BME280;28261;53.304;-6.284;2022-10-16T07:23:50;100124.03;;;6.80;84.98
42633;BME280;28261;53.304;-6.284;2022-10-16T07:25:55;100126.06;;;6.89;84.88
42633;BME280;28261;53.304;-6.284;2022-10-16T07:28:00;100134.28;;;6.99;84.20
42633;BME280;28261;53.304;-6.284;2022-10-16T07:30:05;100126.91;;;7.04;84.26
42633;BME280;28261;53.304;-6.284;2022-10-16T07:32:11;100137.91;;;7.10;84.52
42633;BME280;28261;53.304;-6.284;2022-10-16T07:34:17;100141.13;;;7.16;84.18
42633;BME280;28261;53.304;-6.284;2022-10-16T07:36:21;100150.25;;;7.24;83.89
42633;BME280;28261;53.304;-6.284;2022-10-16T07:38:26;100150.69;;;7.31;83.84
42633;BME280;28261;53.304;-6.284;2022-10-16T07:40:31;100150.22;;;7.39;83.51
42633;BME280;28261;53.304;-6.284;2022-10-16T07:42:35;100161.25;;;7.45;83.19
42633;BME280;28261;53.304;-6.284;2022-10-16T07:44:39;100171.38;;;7.52;83.33
42633;BME280;28261;53.304;-6.284;2022-10-16T07:46:43;100171.13;;;7.56;83.75
42633;BME280;28261;53.304;-6.284;2022-10-16T07:48:48;100170.81;;;7.61;82.71
42633;BME280;28261;53.304;-6.284;2022-10-16T07:50:51;100181.94;;;7.66;83.05
42633;BME280;28261;53.304;-6.284;2022-10-16T07:52:55;100184.91;;;7.74;82.88
42633;BME280;28261;53.304;-6.284;2022-10-16T07:54:58;100197.63;;;7.82;82.39
42633;BME280;28261;53.304;-6.284;2022-10-16T07:57:02;100198.09;;;7.89;82.90
42633;BME280;28261;53.304;-6.284;2022-10-16T07:59:06;100211.63;;;7.97;82.67
42633;BME280;28261;53.304;-6.284;2022-10-16T08:01:11;100215.47;;;8.06;81.99
42633;BME280;28261;53.304;-6.284;2022-10-16T08:03:15;100227.41;;;8.11;81.87
42633;BME280;28261;53.304;-6.284;2022-10-16T08:05:20;100222.69;;;8.17;81.90
42633;BME280;28261;53.304;-6.284;2022-10-16T08:07:23;100229.47;;;8.21;82.23
42633;BME280;28261;53.304;-6.284;2022-10-16T08:09:28;100226.63;;;8.24;82.45
42633;BME280;28261;53.304;-6.284;2022-10-16T08:11:31;100227.38;;;8.26;82.44
42633;BME280;28261;53.304;-6.284;2022-10-16T08:13:35;100228.00;;;8.29;82.29
42633;BME280;28261;53.304;-6.284;2022-10-16T08:15:40;100217.16;;;8.34;82.67
42633;BME280;28261;53.304;-6.284;2022-10-16T08:17:44;100201.88;;;8.39;82.02
42633;BME280;28261;53.304;-6.284;2022-10-16T08:19:48;100212.94;;;8.44;81.56
42633;BME280;28261;53.304;-6.284;2022-10-16T08:21:54;100211.81;;;8.49;82.06
42633;BME280;28261;53.304;-6.284;2022-10-16T08:23:58;100209.72;;;8.54;81.69
42633;BME280;28261;53.304;-6.284;2022-10-16T08:26:04;100212.16;;;8.57;81.67
42633;BME280;28261;53.304;-6.284;2022-10-16T08:28:10;100211.88;;;8.61;82.31
42633;BME280;28261;53.304;-6.284;2022-10-16T08:30:15;100211.75;;;8.63;81.96
42633;BME280;28261;53.304;-6.284;2022-10-16T08:32:19;100208.19;;;8.64;82.21
42633;BME280;28261;53.304;-6.284;2022-10-16T08:34:29;100213.56;;;8.62;82.03
42633;BME280;28261;53.304;-6.284;2022-10-16T08:36:33;100215.34;;;8.62;82.64
42633;BME280;28261;53.304;-6.284;2022-10-16T08:38:39;100215.88;;;8.67;82.61
42633;BME280;28261;53.304;-6.284;2022-10-16T08:40:43;100212.09;;;8.71;82.60
42633;BME280;28261;53.304;-6.284;2022-10-16T08:45:34;100216.44;;;8.85;82.90
42633;BME280;28261;53.304;-6.284;2022-10-16T08:47:49;100226.28;;;8.96;82.38
42633;BME280;28261;53.304;-6.284;2022-10-16T08:50:00;100227.13;;;9.09;81.87
42633;BME280;28261;53.304;-6.284;2022-10-16T08:52:11;100223.63;;;9.22;81.52
42633;BME280;28261;53.304;-6.284;2022-10-16T08:54:28;100228.06;;;9.34;81.66
42633;BME280;28261;53.304;-6.284;2022-10-16T08:56:33;100229.09;;;9.44;81.10
42633;BME280;28261;53.304;-6.284;2022-10-16T08:58:37;100224.13;;;9.53;80.62
42633;BME280;28261;53.304;-6.284;2022-10-16T09:00:43;100223.59;;;9.60;80.35
42633;BME280;28261;53.304;-6.284;2022-10-16T09:02:53;100220.50;;;9.67;80.19
42633;BME280;28261;53.304;-6.284;2022-10-16T09:05:02;100231.22;;;9.65;79.45
42633;BME280;28261;53.304;-6.284;2022-10-16T09:07:17;100231.53;;;9.60;79.75
42633;BME280;28261;53.304;-6.284;2022-10-16T09:09:38;100245.09;;;9.56;79.09
42633;BME280;28261;53.304;-6.284;2022-10-16T09:11:51;100234.28;;;9.59;79.93
42633;BME280;28261;53.304;-6.284;2022-10-16T09:14:02;100241.88;;;9.63;80.10
42633;BME280;28261;53.304;-6.284;2022-10-16T09:16:16;100240.63;;;9.69;79.17
42633;BME280;28261;53.304;-6.284;2022-10-16T09:18:26;100241.66;;;9.79;79.76
42633;BME280;28261;53.304;-6.284;2022-10-16T09:20:50;100248.00;;;9.90;79.25
42633;BME280;28261;53.304;-6.284;2022-10-16T09:23:08;100251.53;;;10.02;78.79
42633;BME280;28261;53.304;-6.284;2022-10-16T09:25:17;100253.63;;;10.09;78.28
42633;BME280;28261;53.304;-6.284;2022-10-16T09:27:21;100254.88;;;10.16;77.82
42633;BME280;28261;53.304;-6.284;2022-10-16T09:29:26;100259.72;;;10.23;77.85
42633;BME280;28261;53.304;-6.284;2022-10-16T09:31:30;100273.25;;;10.31;77.77
42633;BME280;28261;53.304;-6.284;2022-10-16T09:33:37;100281.66;;;10.38;77.59
42633;BME280;28261;53.304;-6.284;2022-10-16T09:35:45;100270.81;;;10.41;77.47
42633;BME280;28261;53.304;-6.284;2022-10-16T09:37:51;100280.66;;;10.39;77.58
42633;BME280;28261;53.304;-6.284;2022-10-16T09:39:58;100279.19;;;10.35;77.67
42633;BME280;28261;53.304;-6.284;2022-10-16T09:42:13;100286.75;;;10.28;76.80
42633;BME280;28261;53.304;-6.284;2022-10-16T09:44:21;100282.03;;;10.31;77.51
42633;BME280;28261;53.304;-6.284;2022-10-16T09:46:29;100279.72;;;10.40;77.58
42633;BME280;28261;53.304;-6.284;2022-10-16T09:48:36;100273.84;;;10.47;77.43
42633;BME280;28261;53.304;-6.284;2022-10-16T09:50:41;100268.09;;;10.54;77.24
42633;BME280;28261;53.304;-6.284;2022-10-16T09:52:45;100262.34;;;10.60;76.54
42633;BME280;28261;53.304;-6.284;2022-10-16T09:54:51;100277.28;;;10.61;76.13
42633;BME280;28261;53.304;-6.284;2022-10-16T09:57:04;100280.66;;;10.63;76.06
42633;BME280;28261;53.304;-6.284;2022-10-16T09:59:13;100286.59;;;10.66;76.33
42633;BME280;28261;53.304;-6.284;2022-10-16T10:01:19;100285.41;;;10.71;76.70
42633;BME280;28261;53.304;-6.284;2022-10-16T10:03:34;100286.63;;;10.78;76.43
42633;BME280;28261;53.304;-6.284;2022-10-16T10:05:40;100276.16;;;10.88;76.13
42633;BME280;28261;53.304;-6.284;2022-10-16T10:07:44;100270.41;;;10.94;75.96
42633;BME280;28261;53.304;-6.284;2022-10-16T10:09:50;100275.22;;;11.00;75.99
42633;BME280;28261;53.304;-6.284;2022-10-16T10:11:55;100276.69;;;11.04;74.95
42633;BME280;28261;53.304;-6.284;2022-10-16T10:14:04;100268.84;;;11.03;75.79
42633;BME280;28261;53.304;-6.284;2022-10-16T10:16:11;100268.25;;;10.99;74.53
42633;BME280;28261;53.304;-6.284;2022-10-16T10:18:16;100260.50;;;10.96;74.75
42633;BME280;28261;53.304;-6.284;2022-10-16T10:20:26;100245.69;;;10.93;75.13
42633;BME280;28261;53.304;-6.284;2022-10-16T10:22:38;100243.88;;;10.94;75.04
42633;BME280;28261;53.304;-6.284;2022-10-16T10:24:44;100262.47;;;10.94;74.92
42633;BME280;28261;53.304;-6.284;2022-10-16T10:26:54;100267.75;;;10.94;75.13
42633;BME280;28261;53.304;-6.284;2022-10-16T10:29:02;100270.66;;;10.91;75.04
42633;BME280;28261;53.304;-6.284;2022-10-16T11:44:18;100309.28;;;10.33;72.26
42633;BME280;28261;53.304;-6.284;2022-10-16T11:46:25;100309.09;;;10.37;72.62
42633;BME280;28261;53.304;-6.284;2022-10-16T11:48:35;100307.91;;;10.41;72.26
42633;BME280;28261;53.304;-6.284;2022-10-16T11:50:48;100304.44;;;10.40;72.47
42633;BME280;28261;53.304;-6.284;2022-10-16T11:53:01;100303.56;;;10.40;71.37
42633;BME280;28261;53.304;-6.284;2022-10-16T11:55:14;100294.53;;;10.42;72.12
42633;BME280;28261;53.304;-6.284;2022-10-16T11:57:22;100285.53;;;10.45;72.13
42633;BME280;28261;53.304;-6.284;2022-10-16T11:59:34;100285.41;;;10.46;71.45
42633;BME280;28261;53.304;-6.284;2022-10-16T12:01:43;100292.19;;;10.50;71.12
42633;BME280;28261;53.304;-6.284;2022-10-16T12:04:01;100283.28;;;10.52;70.65
42633;BME280;28261;53.304;-6.284;2022-10-16T12:06:16;100274.25;;;10.54;71.13
42633;BME280;28261;53.304;-6.284;2022-10-16T12:08:26;100271.38;;;10.57;70.80
42633;BME280;28261;53.304;-6.284;2022-10-16T12:10:31;100271.38;;;10.57;70.20
42633;BME280;28261;53.304;-6.284;2022-10-16T12:12:43;100265.94;;;10.59;69.73
42633;BME280;28261;53.304;-6.284;2022-10-16T12:15:00;100259.81;;;10.58;69.41
42633;BME280;28261;53.304;-6.284;2022-10-16T12:17:26;100259.94;;;10.57;68.77
42633;BME280;28261;53.304;-6.284;2022-10-16T12:19:30;100258.94;;;10.58;69.16